sensor_id;sensor_type;location;lat;lon;timestamp;pressure;altitude;pressure_sealevel;temperature;humidity
12203;BME280;6164;42.178;24.622;2024-01-30T00:01:11;101854.00;;;0.95;100.00
12203;BME280;6164;42.178;24.622;2024-01-30T00:03:38;101863.59;;;0.93;100.00
12203;BME280;6164;42.178;24.622;2024-01-30T00:06:05;101860.41;;;0.85;100.00
12203;BME280;6164;42.178;24.622;2024-01-30T00:08:35;101860.69;;;0.77;100.00
12203;BME280;6164;42.178;24.622;2024-01-30T00:11:02;101875.03;;;0.63;100.00
12203;BME280;6164;42.178;24.622;2024-01-30T00:13:29;101867.22;;;0.37;100.00
12203;BME280;6164;42.178;24.622;2024-01-30T00:15:55;101869.47;;;0.21;100.00
12203;BME280;6164;42.178;24.622;2024-01-30T00:18:22;101867.53;;;0.00;100.00
12203;BME280;6164;42.178;24.622;2024-01-30T00:20:48;101874.81;;;-0.13;100.00
12203;BME280;6164;42.178;24.622;2024-01-30T00:23:15;101876.22;;;-0.01;100.00
12203;BME280;6164;42.178;24.622;2024-01-30T00:25:46;101870.75;;;0.08;100.00
12203;BME280;6164;42.178;24.622;2024-01-30T00:28:13;101871.56;;;0.09;100.00
12203;BME280;6164;42.178;24.622;2024-01-30T00:30:39;101875.59;;;0.19;100.00
12203;BME280;6164;42.178;24.622;2024-01-30T00:33:06;101876.34;;;0.22;100.00
12203;BME280;6164;42.178;24.622;2024-01-30T00:35:33;101880.50;;;0.28;100.00
12203;BME280;6164;42.178;24.622;2024-01-30T00:38:00;101874.31;;;0.32;100.00
12203;BME280;6164;42.178;24.622;2024-01-30T00:40:26;101877.38;;;0.18;100.00
12203;BME280;6164;42.178;24.622;2024-01-30T00:42:54;101876.72;;;0.10;100.00
12203;BME280;6164;42.178;24.622;2024-01-30T00:45:21;101879.00;;;-0.07;100.00
12203;BME280;6164;42.178;24.622;2024-01-30T00:47:47;101883.13;;;-0.02;100.00
12203;BME280;6164;42.178;24.622;2024-01-30T00:50:14;101878.44;;;-0.17;100.00
12203;BME280;6164;42.178;24.622;2024-01-30T00:52:41;101878.09;;;-0.35;100.00
12203;BME280;6164;42.178;24.622;2024-01-30T00:55:10;101881.22;;;-0.53;100.00
12203;BME280;6164;42.178;24.622;2024-01-30T00:57:36;101880.53;;;-0.60;100.00
12203;BME280;6164;42.178;24.622;2024-01-30T01:00:05;101880.38;;;-0.84;100.00
12203;BME280;6164;42.178;24.622;2024-01-30T01:02:34;101882.97;;;-0.84;100.00
12203;BME280;6164;42.178;24.622;2024-01-30T01:05:00;101882.06;;;-0.83;100.00
12203;BME280;6164;42.178;24.622;2024-01-30T01:07:27;101896.59;;;-0.78;100.00
12203;BME280;6164;42.178;24.622;2024-01-30T01:09:54;101889.59;;;-1.06;100.00
12203;BME280;6164;42.178;24.622;2024-01-30T01:12:20;101893.03;;;-1.40;100.00
12203;BME280;6164;42.178;24.622;2024-01-30T01:14:47;101889.94;;;-1.54;100.00
12203;BME280;6164;42.178;24.622;2024-01-30T01:17:15;101887.47;;;-1.60;100.00
12203;BME280;6164;42.178;24.622;2024-01-30T01:19:43;101880.06;;;-1.75;100.00
12203;BME280;6164;42.178;24.622;2024-01-30T01:22:10;101884.09;;;-1.62;100.00
12203;BME280;6164;42.178;24.622;2024-01-30T01:24:36;101886.81;;;-1.69;100.00
12203;BME280;6164;42.178;24.622;2024-01-30T01:27:04;101881.91;;;-1.81;100.00
12203;BME280;6164;42.178;24.622;2024-01-30T01:29:31;101882.84;;;-1.84;100.00
12203;BME280;6164;42.178;24.622;2024-01-30T01:31:58;101880.00;;;-1.72;100.00
12203;BME280;6164;42.178;24.622;2024-01-30T01:34:26;101883.38;;;-1.68;100.00
12203;BME280;6164;42.178;24.622;2024-01-30T01:36:55;101885.34;;;-1.79;100.00
12203;BME280;6164;42.178;24.622;2024-01-30T01:39:22;101879.25;;;-1.77;100.00
12203;BME280;6164;42.178;24.622;2024-01-30T01:41:49;101876.50;;;-1.71;100.00
12203;BME280;6164;42.178;24.622;2024-01-30T01:44:15;101880.13;;;-1.78;100.00
12203;BME280;6164;42.178;24.622;2024-01-30T01:46:42;101877.78;;;-1.88;100.00
12203;BME280;6164;42.178;24.622;2024-01-30T01:49:09;101883.38;;;-2.06;100.00
12203;BME280;6164;42.178;24.622;2024-01-30T01:51:37;101882.13;;;-2.28;100.00
12203;BME280;6164;42.178;24.622;2024-01-30T01:54:06;101879.56;;;-2.30;100.00
12203;BME280;6164;42.178;24.622;2024-01-30T01:56:33;101881.31;;;-2.30;100.00
12203;BME280;6164;42.178;24.622;2024-01-30T01:59:00;101879.69;;;-2.34;100.00
12203;BME280;6164;42.178;24.622;2024-01-30T02:01:31;101890.00;;;-2.33;100.00
12203;BME280;6164;42.178;24.622;2024-01-30T02:03:58;101889.88;;;-2.28;100.00
12203;BME280;6164;42.178;24.622;2024-01-30T02:06:25;101892.44;;;-2.27;100.00
12203;BME280;6164;42.178;24.622;2024-01-30T02:08:54;101900.50;;;-2.42;100.00
12203;BME280;6164;42.178;24.622;2024-01-30T02:11:21;101885.22;;;-2.52;100.00
12203;BME280;6164;42.178;24.622;2024-01-30T02:13:48;101887.84;;;-2.54;100.00
12203;BME280;6164;42.178;24.622;2024-01-30T02:16:15;101893.84;;;-2.53;100.00
12203;BME280;6164;42.178;24.622;2024-01-30T02:18:42;101894.72;;;-2.53;100.00
12203;BME280;6164;42.178;24.622;2024-01-30T02:21:13;101893.94;;;-2.58;100.00
12203;BME280;6164;42.178;24.622;2024-01-30T02:23:40;101899.19;;;-2.61;100.00
12203;BME280;6164;42.178;24.622;2024-01-30T02:26:07;101893.91;;;-2.56;100.00
12203;BME280;6164;42.178;24.622;2024-01-30T02:28:34;101904.22;;;-2.55;100.00
12203;BME280;6164;42.178;24.622;2024-01-30T02:31:00;101893.03;;;-2.54;100.00
12203;BME280;6164;42.178;24.622;2024-01-30T02:33:27;101902.44;;;-2.51;100.00
12203;BME280;6164;42.178;24.622;2024-01-30T02:35:53;101910.19;;;-2.51;100.00
12203;BME280;6164;42.178;24.622;2024-01-30T02:38:21;101909.47;;;-2.58;100.00
12203;BME280;6164;42.178;24.622;2024-01-30T02:40:48;101903.56;;;-2.64;100.00
12203;BME280;6164;42.178;24.622;2024-01-30T02:43:15;101905.34;;;-2.68;100.00
12203;BME280;6164;42.178;24.622;2024-01-30T02:45:42;101908.19;;;-2.82;100.00
12203;BME280;6164;42.178;24.622;2024-01-30T02:48:09;101911.50;;;-2.75;100.00
12203;BME280;6164;42.178;24.622;2024-01-30T02:50:35;101912.59;;;-2.85;100.00
12203;BME280;6164;42.178;24.622;2024-01-30T02:53:02;101910.84;;;-2.86;100.00
12203;BME280;6164;42.178;24.622;2024-01-30T02:55:30;101911.56;;;-2.78;100.00
12203;BME280;6164;42.178;24.622;2024-01-30T02:57:57;101914.00;;;-2.69;100.00
12203;BME280;6164;42.178;24.622;2024-01-30T03:00:23;101920.72;;;-2.60;100.00
12203;BME280;6164;42.178;24.622;2024-01-30T03:02:50;101926.63;;;-2.54;100.00
12203;BME280;6164;42.178;24.622;2024-01-30T03:05:17;101927.25;;;-2.41;100.00
12203;BME280;6164;42.178;24.622;2024-01-30T03:07:43;101919.31;;;-2.32;100.00
12203;BME280;6164;42.178;24.622;2024-01-30T03:10:10;101919.09;;;-2.23;100.00
12203;BME280;6164;42.178;24.622;2024-01-30T03:12:38;101913.59;;;-2.08;100.00
12203;BME280;6164;42.178;24.622;2024-01-30T03:15:05;101913.44;;;-2.01;100.00
12203;BME280;6164;42.178;24.622;2024-01-30T03:17:32;101907.47;;;-2.03;100.00
12203;BME280;6164;42.178;24.622;2024-01-30T03:19:58;101908.53;;;-2.13;100.00
12203;BME280;6164;42.178;24.622;2024-01-30T03:22:25;101906.78;;;-2.12;100.00
12203;BME280;6164;42.178;24.622;2024-01-30T03:24:52;101903.22;;;-2.07;100.00
12203;BME280;6164;42.178;24.622;2024-01-30T03:27:18;101906.38;;;-1.93;100.00
12203;BME280;6164;42.178;24.622;2024-01-30T03:29:46;101905.25;;;-1.83;100.00
12203;BME280;6164;42.178;24.622;2024-01-30T03:32:13;101901.63;;;-1.74;100.00
12203;BME280;6164;42.178;24.622;2024-01-30T03:34:40;101899.94;;;-1.75;100.00
12203;BME280;6164;42.178;24.622;2024-01-30T03:37:06;101905.06;;;-1.74;100.00
12203;BME280;6164;42.178;24.622;2024-01-30T03:39:33;101903.31;;;-1.72;100.00
12203;BME280;6164;42.178;24.622;2024-01-30T03:42:00;101905.69;;;-1.64;100.00
12203;BME280;6164;42.178;24.622;2024-01-30T03:44:26;101908.34;;;-1.66;100.00
12203;BME280;6164;42.178;24.622;2024-01-30T03:46:54;101911.59;;;-1.58;100.00
12203;BME280;6164;42.178;24.622;2024-01-30T03:49:21;101906.00;;;-1.41;100.00
12203;BME280;6164;42.178;24.622;2024-01-30T03:51:48;101905.75;;;-1.30;100.00
12203;BME280;6164;42.178;24.622;2024-01-30T03:54:14;101898.66;;;-1.22;100.00
12203;BME280;6164;42.178;24.622;2024-01-30T03:56:41;101905.34;;;-1.14;100.00
12203;BME280;6164;42.178;24.622;2024-01-30T03:59:08;101909.50;;;-1.08;100.00
12203;BME280;6164;42.178;24.622;2024-01-30T04:01:34;101904.19;;;-1.02;100.00
12203;BME280;6164;42.178;24.622;2024-01-30T04:04:02;101899.78;;;-1.00;100.00
12203;BME280;6164;42.178;24.622;2024-01-30T04:06:29;101901.38;;;-0.95;100.00
12203;BME280;6164;42.178;24.622;2024-01-30T04:08:56;101910.28;;;-1.05;100.00
12203;BME280;6164;42.178;24.622;2024-01-30T04:11:22;101917.19;;;-1.04;100.00
12203;BME280;6164;42.178;24.622;2024-01-30T04:13:49;101911.31;;;-1.10;100.00
12203;BME280;6164;42.178;24.622;2024-01-30T04:16:19;101911.09;;;-1.03;100.00
12203;BME280;6164;42.178;24.622;2024-01-30T04:18:46;101910.97;;;-0.98;100.00
12203;BME280;6164;42.178;24.622;2024-01-30T04:21:14;101918.72;;;-0.97;100.00
12203;BME280;6164;42.178;24.622;2024-01-30T04:23:41;101916.94;;;-0.95;100.00
12203;BME280;6164;42.178;24.622;2024-01-30T04:26:08;101904.06;;;-0.98;100.00
12203;BME280;6164;42.178;24.622;2024-01-30T04:28:34;101910.97;;;-0.98;100.00
12203;BME280;6164;42.178;24.622;2024-01-30T04:31:01;101905.81;;;-1.00;100.00
12203;BME280;6164;42.178;24.622;2024-01-30T04:33:27;101914.56;;;-1.02;100.00
12203;BME280;6164;42.178;24.622;2024-01-30T04:35:54;101914.03;;;-1.16;100.00
12203;BME280;6164;42.178;24.622;2024-01-30T04:38:22;101918.41;;;-1.18;100.00
12203;BME280;6164;42.178;24.622;2024-01-30T04:40:49;101921.09;;;-1.23;100.00
12203;BME280;6164;42.178;24.622;2024-01-30T04:43:15;101910.28;;;-1.39;100.00
12203;BME280;6164;42.178;24.622;2024-01-30T04:45:42;101920.16;;;-1.19;100.00
12203;BME280;6164;42.178;24.622;2024-01-30T04:48:08;101921.69;;;-1.10;100.00
12203;BME280;6164;42.178;24.622;2024-01-30T04:50:35;101919.13;;;-1.13;100.00
12203;BME280;6164;42.178;24.622;2024-01-30T04:53:02;101932.75;;;-1.04;100.00
12203;BME280;6164;42.178;24.622;2024-01-30T04:55:30;101929.22;;;-1.01;100.00
12203;BME280;6164;42.178;24.622;2024-01-30T04:57:56;101927.25;;;-0.93;100.00
12203;BME280;6164;42.178;24.622;2024-01-30T05:00:23;101937.50;;;-0.87;100.00
12203;BME280;6164;42.178;24.622;2024-01-30T05:02:49;101928.13;;;-0.93;100.00
12203;BME280;6164;42.178;24.622;2024-01-30T05:05:16;101939.19;;;-0.86;100.00
12203;BME280;6164;42.178;24.622;2024-01-30T05:07:43;101943.44;;;-0.84;100.00
12203;BME280;6164;42.178;24.622;2024-01-30T05:10:09;101932.88;;;-0.76;100.00
12203;BME280;6164;42.178;24.622;2024-01-30T05:12:38;101934.47;;;-0.72;100.00
12203;BME280;6164;42.178;24.622;2024-01-30T05:15:05;101941.38;;;-0.71;100.00
12203;BME280;6164;42.178;24.622;2024-01-30T05:17:31;101940.63;;;-0.75;100.00
12203;BME280;6164;42.178;24.622;2024-01-30T05:19:58;101946.31;;;-0.94;100.00
12203;BME280;6164;42.178;24.622;2024-01-30T05:22:25;101944.16;;;-1.11;100.00
12203;BME280;6164;42.178;24.622;2024-01-30T05:24:51;101942.41;;;-1.10;100.00
12203;BME280;6164;42.178;24.622;2024-01-30T05:27:18;101943.94;;;-1.03;100.00
12203;BME280;6164;42.178;24.622;2024-01-30T05:29:46;101955.13;;;-1.01;100.00
12203;BME280;6164;42.178;24.622;2024-01-30T05:32:12;101954.38;;;-1.06;100.00
12203;BME280;6164;42.178;24.622;2024-01-30T05:34:39;101955.38;;;-1.12;100.00
12203;BME280;6164;42.178;24.622;2024-01-30T05:37:05;101949.44;;;-1.15;100.00
12203;BME280;6164;42.178;24.622;2024-01-30T05:39:32;101956.13;;;-1.07;100.00
12203;BME280;6164;42.178;24.622;2024-01-30T05:41:59;101957.75;;;-1.03;100.00
12203;BME280;6164;42.178;24.622;2024-01-30T05:44:25;101961.59;;;-0.84;100.00
12203;BME280;6164;42.178;24.622;2024-01-30T05:46:53;101961.41;;;-0.76;100.00
12203;BME280;6164;42.178;24.622;2024-01-30T05:49:20;101957.91;;;-0.75;100.00
12203;BME280;6164;42.178;24.622;2024-01-30T05:51:47;101951.81;;;-0.73;100.00
12203;BME280;6164;42.178;24.622;2024-01-30T05:54:13;101951.56;;;-0.64;100.00
12203;BME280;6164;42.178;24.622;2024-01-30T05:56:40;101946.38;;;-0.64;100.00
12203;BME280;6164;42.178;24.622;2024-01-30T05:59:06;101948.19;;;-0.67;100.00
12203;BME280;6164;42.178;24.622;2024-01-30T06:01:33;101949.84;;;-0.65;100.00
12203;BME280;6164;42.178;24.622;2024-01-30T06:04:01;101950.00;;;-0.69;100.00
12203;BME280;6164;42.178;24.622;2024-01-30T06:06:27;101954.28;;;-0.68;100.00
12203;BME280;6164;42.178;24.622;2024-01-30T06:08:54;101952.72;;;-0.75;100.00
12203;BME280;6164;42.178;24.622;2024-01-30T06:11:21;101961.09;;;-0.66;100.00
12203;BME280;6164;42.178;24.622;2024-01-30T06:13:48;101962.97;;;-0.69;100.00
12203;BME280;6164;42.178;24.622;2024-01-30T06:16:14;101964.00;;;-0.76;100.00
12203;BME280;6164;42.178;24.622;2024-01-30T06:18:41;101948.34;;;-0.73;100.00
12203;BME280;6164;42.178;24.622;2024-01-30T06:21:09;101962.09;;;-0.70;100.00
12203;BME280;6164;42.178;24.622;2024-01-30T06:23:35;101969.72;;;-0.64;100.00
12203;BME280;6164;42.178;24.622;2024-01-30T06:26:02;101971.22;;;-0.55;100.00
12203;BME280;6164;42.178;24.622;2024-01-30T06:28:28;101984.22;;;-0.57;100.00
12203;BME280;6164;42.178;24.622;2024-01-30T06:30:55;101983.44;;;-0.60;100.00
12203;BME280;6164;42.178;24.622;2024-01-30T06:33:22;101979.56;;;-0.44;100.00
12203;BME280;6164;42.178;24.622;2024-01-30T06:35:48;101976.81;;;-0.38;100.00
12203;BME280;6164;42.178;24.622;2024-01-30T06:38:16;101974.22;;;-0.38;100.00
12203;BME280;6164;42.178;24.622;2024-01-30T06:40:43;101973.41;;;-0.40;100.00
12203;BME280;6164;42.178;24.622;2024-01-30T06:43:09;101975.78;;;-0.33;100.00
12203;BME280;6164;42.178;24.622;2024-01-30T06:45:36;101975.00;;;-0.35;100.00
12203;BME280;6164;42.178;24.622;2024-01-30T06:48:03;101969.13;;;-0.43;100.00
12203;BME280;6164;42.178;24.622;2024-01-30T06:50:29;101970.84;;;-0.42;100.00
12203;BME280;6164;42.178;24.622;2024-01-30T06:52:56;101971.84;;;-0.47;100.00
12203;BME280;6164;42.178;24.622;2024-01-30T06:55:24;101977.72;;;-0.41;100.00
12203;BME280;6164;42.178;24.622;2024-01-30T06:57:50;101977.94;;;-0.48;100.00
12203;BME280;6164;42.178;24.622;2024-01-30T07:00:17;101983.91;;;-0.45;100.00
12203;BME280;6164;42.178;24.622;2024-01-30T07:02:44;101977.78;;;-0.42;100.00
12203;BME280;6164;42.178;24.622;2024-01-30T07:05:11;101983.91;;;-0.45;100.00
12203;BME280;6164;42.178;24.622;2024-01-30T07:07:38;101977.72;;;-0.41;100.00
12203;BME280;6164;42.178;24.622;2024-01-30T07:10:05;101970.84;;;-0.42;100.00
12203;BME280;6164;42.178;24.622;2024-01-30T07:12:33;101967.94;;;-0.31;100.00
12203;BME280;6164;42.178;24.622;2024-01-30T07:15:00;101983.16;;;-0.18;100.00
12203;BME280;6164;42.178;24.622;2024-01-30T07:17:28;101986.59;;;-0.17;100.00
12203;BME280;6164;42.178;24.622;2024-01-30T07:19:54;101981.22;;;-0.11;100.00
12203;BME280;6164;42.178;24.622;2024-01-30T07:22:21;101978.75;;;-0.16;100.00
12203;BME280;6164;42.178;24.622;2024-01-30T07:24:47;101976.00;;;-0.10;100.00
12203;BME280;6164;42.178;24.622;2024-01-30T07:27:14;101978.50;;;-0.07;100.00
12203;BME280;6164;42.178;24.622;2024-01-30T07:29:44;101971.41;;;0.00;100.00
12203;BME280;6164;42.178;24.622;2024-01-30T07:32:10;101974.69;;;0.07;100.00
12203;BME280;6164;42.178;24.622;2024-01-30T07:34:37;101965.25;;;0.03;100.00
12203;BME280;6164;42.178;24.622;2024-01-30T07:37:03;101969.34;;;0.11;100.00
12203;BME280;6164;42.178;24.622;2024-01-30T07:39:30;101975.25;;;0.16;100.00
12203;BME280;6164;42.178;24.622;2024-01-30T07:41:57;101972.41;;;0.24;100.00
12203;BME280;6164;42.178;24.622;2024-01-30T07:44:23;101968.78;;;0.29;100.00
12203;BME280;6164;42.178;24.622;2024-01-30T07:46:51;101976.84;;;0.49;100.00
12203;BME280;6164;42.178;24.622;2024-01-30T07:49:18;101971.44;;;0.55;100.00
12203;BME280;6164;42.178;24.622;2024-01-30T07:51:44;101968.44;;;0.69;100.00
12203;BME280;6164;42.178;24.622;2024-01-30T07:54:11;101965.81;;;0.69;100.00
12203;BME280;6164;42.178;24.622;2024-01-30T07:56:38;101960.38;;;0.76;100.00
12203;BME280;6164;42.178;24.622;2024-01-30T07:59:04;101956.19;;;0.72;100.00
12203;BME280;6164;42.178;24.622;2024-01-30T08:01:31;101963.34;;;0.92;100.00
12203;BME280;6164;42.178;24.622;2024-01-30T08:03:59;101955.88;;;1.07;100.00
12203;BME280;6164;42.178;24.622;2024-01-30T08:06:25;101959.91;;;1.16;100.00
12203;BME280;6164;42.178;24.622;2024-01-30T08:08:52;101959.84;;;1.17;100.00
12203;BME280;6164;42.178;24.622;2024-01-30T08:11:19;101962.13;;;1.02;100.00
12203;BME280;6164;42.178;24.622;2024-01-30T08:13:50;101958.34;;;1.10;100.00
12203;BME280;6164;42.178;24.622;2024-01-30T08:16:17;101953.13;;;1.12;100.00
12203;BME280;6164;42.178;24.622;2024-01-30T08:18:43;101948.09;;;1.06;100.00
12203;BME280;6164;42.178;24.622;2024-01-30T08:21:11;101949.72;;;1.10;100.00
12203;BME280;6164;42.178;24.622;2024-01-30T08:23:38;101953.31;;;1.06;100.00
12203;BME280;6164;42.178;24.622;2024-01-30T08:26:04;101952.69;;;1.24;100.00
12203;BME280;6164;42.178;24.622;2024-01-30T08:28:31;101958.00;;;1.46;100.00
12203;BME280;6164;42.178;24.622;2024-01-30T08:30:58;101955.50;;;1.67;100.00
12203;BME280;6164;42.178;24.622;2024-01-30T08:33:24;101947.94;;;1.84;100.00
12203;BME280;6164;42.178;24.622;2024-01-30T08:35:51;101946.56;;;1.74;100.00
12203;BME280;6164;42.178;24.622;2024-01-30T08:38:19;101945.16;;;1.66;100.00
12203;BME280;6164;42.178;24.622;2024-01-30T08:40:45;101946.00;;;1.66;100.00
12203;BME280;6164;42.178;24.622;2024-01-30T08:43:12;101947.97;;;1.60;100.00
12203;BME280;6164;42.178;24.622;2024-01-30T08:45:39;101941.84;;;1.61;100.00
12203;BME280;6164;42.178;24.622;2024-01-30T08:48:06;101934.97;;;1.83;100.00
12203;BME280;6164;42.178;24.622;2024-01-30T08:50:33;101940.41;;;2.00;100.00
12203;BME280;6164;42.178;24.622;2024-01-30T08:52:59;101944.19;;;2.14;100.00
12203;BME280;6164;42.178;24.622;2024-01-30T08:55:27;101936.44;;;2.34;100.00
12203;BME280;6164;42.178;24.622;2024-01-30T08:57:54;101944.59;;;2.48;100.00
12203;BME280;6164;42.178;24.622;2024-01-30T09:00:20;101938.03;;;2.60;100.00
12203;BME280;6164;42.178;24.622;2024-01-30T09:02:47;101939.13;;;2.76;100.00
12203;BME280;6164;42.178;24.622;2024-01-30T09:05:14;101942.88;;;2.91;100.00
12203;BME280;6164;42.178;24.622;2024-01-30T09:07:40;101936.00;;;3.10;100.00
12203;BME280;6164;42.178;24.622;2024-01-30T09:10:07;101934.56;;;3.23;100.00
12203;BME280;6164;42.178;24.622;2024-01-30T09:12:35;101931.34;;;3.36;100.00
12203;BME280;6164;42.178;24.622;2024-01-30T09:15:02;101928.41;;;3.44;100.00
12203;BME280;6164;42.178;24.622;2024-01-30T09:17:28;101937.47;;;3.55;100.00
12203;BME280;6164;42.178;24.622;2024-01-30T09:19:55;101930.50;;;3.36;100.00
12203;BME280;6164;42.178;24.622;2024-01-30T09:22:21;101920.78;;;3.39;100.00
12203;BME280;6164;42.178;24.622;2024-01-30T09:24:48;101927.75;;;3.59;100.00
12203;BME280;6164;42.178;24.622;2024-01-30T09:27:15;101918.84;;;3.63;100.00
12203;BME280;6164;42.178;24.622;2024-01-30T09:29:42;101918.75;;;3.64;100.00
12203;BME280;6164;42.178;24.622;2024-01-30T09:32:09;101918.75;;;3.64;100.00
12203;BME280;6164;42.178;24.622;2024-01-30T09:34:36;101921.94;;;3.52;97.94
12203;BME280;6164;42.178;24.622;2024-01-30T09:37:02;101916.41;;;3.78;100.00
12203;BME280;6164;42.178;24.622;2024-01-30T09:39:29;101918.84;;;3.63;92.68
12203;BME280;6164;42.178;24.622;2024-01-30T09:41:57;101928.03;;;3.71;90.38
12203;BME280;6164;42.178;24.622;2024-01-30T09:44:28;101927.06;;;3.74;89.11
12203;BME280;6164;42.178;24.622;2024-01-30T09:46:56;101931.44;;;3.73;88.15
12203;BME280;6164;42.178;24.622;2024-01-30T09:49:31;101921.22;;;3.49;89.11
12203;BME280;6164;42.178;24.622;2024-01-30T09:51:58;101898.50;;;3.51;90.98
12203;BME280;6164;42.178;24.622;2024-01-30T09:54:25;101903.19;;;3.81;90.70
12203;BME280;6164;42.178;24.622;2024-01-30T09:56:51;101906.38;;;3.88;89.45
12203;BME280;6164;42.178;24.622;2024-01-30T09:59:18;101903.69;;;3.89;90.05
12203;BME280;6164;42.178;24.622;2024-01-30T10:01:44;101900.63;;;4.17;88.38
12203;BME280;6164;42.178;24.622;2024-01-30T10:04:12;101914.19;;;4.25;84.92
12203;BME280;6164;42.178;24.622;2024-01-30T10:06:39;101932.78;;;4.19;81.36
12203;BME280;6164;42.178;24.622;2024-01-30T10:09:06;101926.63;;;4.20;80.56
12203;BME280;6164;42.178;24.622;2024-01-30T10:11:33;101945.00;;;4.19;79.40
12203;BME280;6164;42.178;24.622;2024-01-30T10:14:00;101942.47;;;4.17;78.54
12203;BME280;6164;42.178;24.622;2024-01-30T10:16:26;101941.19;;;4.44;78.35
12203;BME280;6164;42.178;24.622;2024-01-30T10:18:53;101948.16;;;4.62;77.30
12203;BME280;6164;42.178;24.622;2024-01-30T10:21:21;101963.50;;;4.70;74.85
12203;BME280;6164;42.178;24.622;2024-01-30T10:23:49;101979.66;;;4.78;73.73
12203;BME280;6164;42.178;24.622;2024-01-30T10:26:15;101982.81;;;4.84;72.91
12203;BME280;6164;42.178;24.622;2024-01-30T10:28:42;101984.63;;;5.01;72.76
12203;BME280;6164;42.178;24.622;2024-01-30T10:31:09;102008.69;;;5.09;70.47
12203;BME280;6164;42.178;24.622;2024-01-30T10:33:35;102019.44;;;5.03;69.62
12203;BME280;6164;42.178;24.622;2024-01-30T10:36:03;102018.63;;;5.02;69.80
12203;BME280;6164;42.178;24.622;2024-01-30T10:38:32;102029.09;;;5.19;69.28
12203;BME280;6164;42.178;24.622;2024-01-30T10:40:59;102039.88;;;5.30;68.38
12203;BME280;6164;42.178;24.622;2024-01-30T10:43:28;102044.44;;;5.27;67.71
12203;BME280;6164;42.178;24.622;2024-01-30T10:45:57;102050.00;;;5.38;67.04
12203;BME280;6164;42.178;24.622;2024-01-30T10:48:25;102054.84;;;5.46;66.40
12203;BME280;6164;42.178;24.622;2024-01-30T10:50:54;102064.34;;;5.48;65.68
12203;BME280;6164;42.178;24.622;2024-01-30T10:53:22;102062.88;;;5.60;66.27
12203;BME280;6164;42.178;24.622;2024-01-30T10:55:50;102081.47;;;5.55;64.42
12203;BME280;6164;42.178;24.622;2024-01-30T10:58:17;102065.19;;;5.66;65.33
12203;BME280;6164;42.178;24.622;2024-01-30T11:00:44;102065.56;;;5.75;65.05
12203;BME280;6164;42.178;24.622;2024-01-30T11:03:11;102066.66;;;5.88;64.65
12203;BME280;6164;42.178;24.622;2024-01-30T11:05:40;102075.31;;;5.90;63.87
12203;BME280;6164;42.178;24.622;2024-01-30T11:08:10;102094.81;;;6.02;62.97
12203;BME280;6164;42.178;24.622;2024-01-30T11:10:44;102107.53;;;6.09;61.70
12203;BME280;6164;42.178;24.622;2024-01-30T11:13:13;102133.38;;;6.17;60.56
12203;BME280;6164;42.178;24.622;2024-01-30T11:15:39;102127.97;;;6.20;60.71
12203;BME280;6164;42.178;24.622;2024-01-30T11:18:06;102117.22;;;6.24;61.40
12203;BME280;6164;42.178;24.622;2024-01-30T11:20:33;102119.38;;;6.33;61.01
12203;BME280;6164;42.178;24.622;2024-01-30T11:23:01;102103.31;;;6.39;62.30
12203;BME280;6164;42.178;24.622;2024-01-30T11:25:32;102109.00;;;6.47;61.66
12203;BME280;6164;42.178;24.622;2024-01-30T11:27:59;102114.75;;;6.54;61.04
12203;BME280;6164;42.178;24.622;2024-01-30T11:30:27;102117.94;;;6.60;60.69
12203;BME280;6164;42.178;24.622;2024-01-30T11:32:58;102118.44;;;6.67;61.30
12203;BME280;6164;42.178;24.622;2024-01-30T11:35:25;102145.22;;;6.74;58.86
12203;BME280;6164;42.178;24.622;2024-01-30T11:37:51;102163.44;;;6.77;57.28
12203;BME280;6164;42.178;24.622;2024-01-30T11:40:19;102166.88;;;6.77;57.74
12203;BME280;6164;42.178;24.622;2024-01-30T11:42:45;102172.69;;;6.84;57.04
12203;BME280;6164;42.178;24.622;2024-01-30T11:45:13;102181.47;;;6.83;57.19
12203;BME280;6164;42.178;24.622;2024-01-30T11:47:48;102161.50;;;6.96;57.73
12203;BME280;6164;42.178;24.622;2024-01-30T11:50:14;102159.31;;;7.04;57.55
12203;BME280;6164;42.178;24.622;2024-01-30T11:52:41;102170.22;;;7.12;56.97
12203;BME280;6164;42.178;24.622;2024-01-30T11:55:08;102177.97;;;7.15;55.96
12203;BME280;6164;42.178;24.622;2024-01-30T11:57:35;102179.47;;;7.19;56.29
12203;BME280;6164;42.178;24.622;2024-01-30T12:00:02;102180.75;;;7.27;55.94
12203;BME280;6164;42.178;24.622;2024-01-30T12:02:33;102163.72;;;7.34;56.87
12203;BME280;6164;42.178;24.622;2024-01-30T12:05:04;102170.41;;;7.40;56.51
12203;BME280;6164;42.178;24.622;2024-01-30T12:07:31;102163.19;;;7.43;56.69
12203;BME280;6164;42.178;24.622;2024-01-30T12:09:57;102160.41;;;7.46;56.22
12203;BME280;6164;42.178;24.622;2024-01-30T12:12:24;102169.81;;;7.50;55.28
12203;BME280;6164;42.178;24.622;2024-01-30T12:14:51;102160.66;;;7.57;55.96
12203;BME280;6164;42.178;24.622;2024-01-30T12:17:26;102162.44;;;7.57;55.29
12203;BME280;6164;42.178;24.622;2024-01-30T12:20:03;102159.59;;;7.75;55.31
12203;BME280;6164;42.178;24.622;2024-01-30T12:22:32;102170.03;;;7.77;54.49
12203;BME280;6164;42.178;24.622;2024-01-30T12:24:58;102159.75;;;7.88;54.70
12203;BME280;6164;42.178;24.622;2024-01-30T12:27:28;102166.94;;;8.00;54.29
12203;BME280;6164;42.178;24.622;2024-01-30T12:29:57;102167.22;;;8.10;53.97
12203;BME280;6164;42.178;24.622;2024-01-30T12:32:24;102178.34;;;8.15;53.00
12203;BME280;6164;42.178;24.622;2024-01-30T12:34:54;102196.38;;;8.21;52.70
12203;BME280;6164;42.178;24.622;2024-01-30T12:37:22;102197.41;;;8.18;53.02
12203;BME280;6164;42.178;24.622;2024-01-30T12:39:50;102191.09;;;8.07;53.62
12203;BME280;6164;42.178;24.622;2024-01-30T12:42:18;102190.59;;;8.00;53.52
12203;BME280;6164;42.178;24.622;2024-01-30T12:44:45;102186.81;;;7.90;53.91
12203;BME280;6164;42.178;24.622;2024-01-30T12:47:12;102185.03;;;7.90;53.47